Time;durP1;ratioP1;P1;durP2;ratioP2;P2;SDS_P1;SDS_P2;PMS_P1;PMS_P2;Temp;Humidity;BMP_temperature;BMP_pressure;BME280_temperature;BME280_humidity;BME280_pressure;Samples;Min_cycle;Max_cycle;Signal;HPM_P1;HPM_P2
2021/12/19 00:01:06;;;;;;;0.00;0.00;;;;;;;;;;4997932;28;20547;-73
2021/12/19 00:03:50;;;;;;;0.00;0.00;;;;;;;;;;4998762;28;20213;-77
2021/12/19 00:09:18;;;;;;;0.00;0.00;;;;;;;;;;4956096;28;20203;-77
2021/12/19 00:11:46;;;;;;;0.00;0.00;;;;;;;;;;4956028;28;20218;-72
2021/12/19 00:14:13;;;;;;;0.00;0.00;;;;;;;;;;4974655;28;20219;-72
2021/12/19 00:16:40;;;;;;;0.00;0.00;;;;;;;;;;4994624;28;20252;-73
2021/12/19 00:19:08;;;;;;;0.00;0.00;;;;;;;;;;4995618;28;20210;-72
2021/12/19 00:21:36;;;;;;;0.00;0.00;;;;;;;;;;4998997;28;20209;-75
2021/12/19 00:24:03;;;;;;;0.00;0.00;;;;;;;;;;4998403;28;20211;-76
2021/12/19 00:26:32;;;;;;;0.00;0.00;;;;;;;;;;4998743;28;20205;-74
2021/12/19 00:29:00;;;;;;;0.00;0.00;;;;;;;;;;4998470;28;20850;-76
2021/12/19 00:31:27;;;;;;;0.00;0.00;;;;;;;;;;4997810;28;20637;-79
2021/12/19 00:33:55;;;;;;;0.00;0.00;;;;;;;;;;5000328;28;20252;-78
2021/12/19 00:36:22;;;;;;;0.00;0.00;;;;;;;;;;4998304;28;20225;-78
2021/12/19 00:38:50;;;;;;;0.00;0.00;;;;;;;;;;4998950;28;20209;-76
2021/12/19 00:41:17;;;;;;;0.00;0.00;;;;;;;;;;4998828;28;20606;-74
2021/12/19 00:43:53;;;;;;;0.00;0.00;;;;;;;;;;4998776;28;20557;-74
2021/12/19 00:46:22;;;;;;;0.00;0.00;;;;;;;;;;4997793;28;20676;-77
2021/12/19 00:48:50;;;;;;;0.00;0.00;;;;;;;;;;4997558;28;20213;-77
2021/12/19 00:51:19;;;;;;;0.00;0.00;;;;;;;;;;4998926;28;20205;-77
2021/12/19 00:53:47;;;;;;;0.00;0.00;;;;;;;;;;4998117;28;20204;-77
2021/12/19 00:56:15;;;;;;;0.00;0.00;;;;;;;;;;4997625;28;20226;-77
2021/12/19 00:58:42;;;;;;;0.00;0.00;;;;;;;;;;4996942;28;20256;-77
2021/12/19 01:01:12;;;;;;;0.00;0.00;;;;;;;;;;4999955;28;20205;-76
2021/12/19 01:03:43;;;;;;;0.00;0.00;;;;;;;;;;5002387;28;20217;-73
2021/12/19 01:06:10;;;;;;;0.00;0.00;;;;;;;;;;5001941;28;20209;-76
2021/12/19 01:08:37;;;;;;;0.00;0.00;;;;;;;;;;5000565;28;20674;-73
2021/12/19 01:11:05;;;;;;;0.00;0.00;;;;;;;;;;5001762;28;20209;-74
2021/12/19 01:13:32;;;;;;;0.00;0.00;;;;;;;;;;5002110;28;20219;-76
2021/12/19 01:16:01;;;;;;;0.00;0.00;;;;;;;;;;5003669;28;20724;-76
2021/12/19 01:18:30;;;;;;;0.00;0.00;;;;;;;;;;5001931;28;20673;-76
2021/12/19 01:20:58;;;;;;;0.00;0.00;;;;;;;;;;4998116;28;21806;-75
2021/12/19 01:23:25;;;;;;;0.00;0.00;;;;;;;;;;5001716;28;20213;-74
2021/12/19 01:25:53;;;;;;;0.00;0.00;;;;;;;;;;5000783;28;20221;-74
2021/12/19 01:28:20;;;;;;;0.00;0.00;;;;;;;;;;4996606;28;20838;-73
2021/12/19 01:30:48;;;;;;;0.00;0.00;;;;;;;;;;4997808;28;20233;-74
2021/12/19 01:33:15;;;;;;;0.00;0.00;;;;;;;;;;5002879;28;20283;-75
2021/12/19 01:35:44;;;;;;;0.93;0.30;;;;;;;;;;5002167;28;20685;-75
2021/12/19 01:38:12;;;;;;;0.00;0.00;;;;;;;;;;4999744;28;20233;-72
2021/12/19 01:40:39;;;;;;;0.00;0.00;;;;;;;;;;4999372;28;20678;-74
2021/12/19 01:43:06;;;;;;;0.00;0.00;;;;;;;;;;5001166;28;20576;-75
2021/12/19 01:45:35;;;;;;;0.00;0.00;;;;;;;;;;4999942;28;20209;-75
2021/12/19 01:48:03;;;;;;;0.00;0.00;;;;;;;;;;5002891;28;20205;-72
2021/12/19 01:50:33;;;;;;;0.00;0.00;;;;;;;;;;5000370;28;20201;-73
2021/12/19 01:53:02;;;;;;;0.07;0.07;;;;;;;;;;5000709;28;20637;-72
2021/12/19 01:55:30;;;;;;;0.20;0.20;;;;;;;;;;5000632;28;20213;-73
2021/12/19 01:57:57;;;;;;;0.00;0.00;;;;;;;;;;5000878;28;20247;-74
2021/12/19 02:00:26;;;;;;;0.00;0.00;;;;;;;;;;5000613;28;20208;-74
2021/12/19 02:02:53;;;;;;;0.00;0.00;;;;;;;;;;5000684;28;20229;-73
2021/12/19 02:05:21;;;;;;;0.00;0.00;;;;;;;;;;5000636;28;20573;-73
2021/12/19 02:07:48;;;;;;;0.00;0.00;;;;;;;;;;4998859;28;20212;-71
2021/12/19 02:10:18;;;;;;;0.00;0.00;;;;;;;;;;4998862;28;20216;-74
2021/12/19 02:12:47;;;;;;;0.00;0.00;;;;;;;;;;5000945;28;20205;-72
2021/12/19 02:15:17;;;;;;;0.00;0.00;;;;;;;;;;5000782;28;20264;-75
2021/12/19 02:17:45;;;;;;;0.00;0.00;;;;;;;;;;4998712;28;20220;-74
2021/12/19 02:20:14;;;;;;;0.00;0.00;;;;;;;;;;5001236;28;20209;-74
2021/12/19 02:22:42;;;;;;;0.00;0.00;;;;;;;;;;4999518;28;20212;-73
2021/12/19 02:25:10;;;;;;;0.00;0.00;;;;;;;;;;5001246;28;20208;-74
2021/12/19 02:27:37;;;;;;;0.00;0.00;;;;;;;;;;4999712;28;20569;-73
2021/12/19 02:30:06;;;;;;;0.00;0.00;;;;;;;;;;4999632;28;20216;-72
2021/12/19 02:32:34;;;;;;;0.00;0.00;;;;;;;;;;4996874;28;20232;-74
2021/12/19 02:35:05;;;;;;;0.00;0.00;;;;;;;;;;5001039;28;20197;-74
2021/12/19 02:38:06;;;;;;;0.00;0.00;;;;;;;;;;4999443;28;20235;-73
2021/12/19 02:48:09;;;;;;;0.00;0.00;;;;;;;;;;4999128;28;20201;-74
2021/12/19 02:48:56;;;;;;;0.00;0.00;;;;;;;;;;5000309;28;20248;-73
2021/12/19 02:51:29;;;;;;;0.00;0.00;;;;;;;;;;4999795;28;20205;-74
2021/12/19 02:54:00;;;;;;;0.00;0.00;;;;;;;;;;5001116;28;20632;-72
2021/12/19 02:56:28;;;;;;;0.00;0.00;;;;;;;;;;4997296;28;20206;-73
2021/12/19 02:58:55;;;;;;;0.00;0.00;;;;;;;;;;4996893;28;20595;-74
2021/12/19 03:01:23;;;;;;;0.00;0.00;;;;;;;;;;4996220;28;20693;-72
2021/12/19 03:03:50;;;;;;;0.00;0.00;;;;;;;;;;4999989;28;20266;-72
2021/12/19 03:06:18;;;;;;;0.00;0.00;;;;;;;;;;5000705;28;20684;-74
2021/12/19 03:08:49;;;;;;;0.00;0.00;;;;;;;;;;4998693;28;20708;-73
2021/12/19 03:19:34;;;;;;;0.00;0.00;;;;;;;;;;4998530;28;20247;-74
2021/12/19 03:22:01;;;;;;;0.00;0.00;;;;;;;;;;4999239;28;20559;-74
2021/12/19 03:24:29;;;;;;;0.00;0.00;;;;;;;;;;5000209;28;20213;-73
2021/12/19 03:26:58;;;;;;;0.00;0.00;;;;;;;;;;5000006;28;20205;-73
2021/12/19 03:29:25;;;;;;;0.00;0.00;;;;;;;;;;4997954;28;20680;-73
2021/12/19 03:31:53;;;;;;;0.00;0.00;;;;;;;;;;4999318;28;20233;-73
2021/12/19 03:34:20;;;;;;;0.00;0.00;;;;;;;;;;4998642;28;20251;-73
2021/12/19 03:36:48;;;;;;;0.00;0.00;;;;;;;;;;4998487;28;20228;-73
2021/12/19 03:39:26;;;;;;;0.00;0.00;;;;;;;;;;4999658;28;20211;-72
2021/12/19 03:41:56;;;;;;;0.30;0.10;;;;;;;;;;4999423;28;20629;-72
2021/12/19 03:44:25;;;;;;;0.00;0.00;;;;;;;;;;4997739;28;20296;-73
2021/12/19 03:46:53;;;;;;;0.00;0.00;;;;;;;;;;5000408;28;20251;-73
2021/12/19 03:49:20;;;;;;;0.00;0.00;;;;;;;;;;4998326;28;20224;-72
2021/12/19 03:51:48;;;;;;;0.00;0.00;;;;;;;;;;4997701;28;20205;-71
2021/12/19 03:54:15;;;;;;;0.00;0.00;;;;;;;;;;4998035;28;20745;-73
2021/12/19 03:56:43;;;;;;;0.00;0.00;;;;;;;;;;4997514;28;20666;-73
2021/12/19 03:59:11;;;;;;;0.00;0.00;;;;;;;;;;4998902;28;20229;-72
2021/12/19 04:01:46;;;;;;;0.00;0.00;;;;;;;;;;4997988;28;20219;-71
2021/12/19 04:04:13;;;;;;;0.00;0.00;;;;;;;;;;4999028;28;20208;-73
2021/12/19 04:06:40;;;;;;;0.00;0.00;;;;;;;;;;4999845;28;20585;-71
2021/12/19 04:09:08;;;;;;;0.00;0.00;;;;;;;;;;4998620;28;20697;-74
2021/12/19 04:11:35;;;;;;;0.30;0.20;;;;;;;;;;4997735;28;20216;-71
2021/12/19 04:14:03;;;;;;;0.00;0.00;;;;;;;;;;5000220;28;20209;-74
2021/12/19 04:16:30;;;;;;;0.00;0.00;;;;;;;;;;4997201;28;20207;-72
2021/12/19 04:18:59;;;;;;;0.07;0.07;;;;;;;;;;4996714;28;20228;-73
2021/12/19 04:21:26;;;;;;;0.00;0.00;;;;;;;;;;4997848;28;20205;-72
2021/12/19 04:23:53;;;;;;;0.67;0.67;;;;;;;;;;4999930;28;20209;-74
2021/12/19 04:26:21;;;;;;;0.00;0.00;;;;;;;;;;4998907;28;20662;-73
2021/12/19 04:28:48;;;;;;;0.00;0.00;;;;;;;;;;4998911;28;22133;-74
2021/12/19 04:31:16;;;;;;;0.00;0.00;;;;;;;;;;4998433;28;20233;-75
2021/12/19 04:33:43;;;;;;;0.00;0.00;;;;;;;;;;4999259;28;20569;-74
2021/12/19 04:36:20;;;;;;;0.00;0.00;;;;;;;;;;4997604;28;20666;-75
2021/12/19 04:58:52;;;;;;;0.00;0.00;;;;;;;;;;4976697;28;20714;-71
2021/12/19 05:01:41;;;;;;;0.30;0.30;;;;;;;;;;5046147;28;20213;-74
2021/12/19 05:04:21;;;;;;;0.30;0.20;;;;;;;;;;5057211;28;20217;-74
2021/12/19 05:15:04;;;;;;;0.00;0.00;;;;;;;;;;5055872;28;20217;-74
2021/12/19 05:17:32;;;;;;;0.00;0.00;;;;;;;;;;5057036;28;20294;-73
2021/12/19 05:20:11;;;;;;;0.00;0.00;;;;;;;;;;5055868;28;20286;-73
2021/12/19 05:22:46;;;;;;;0.10;0.10;;;;;;;;;;5058533;28;20213;-71
2021/12/19 05:25:17;;;;;;;0.00;0.00;;;;;;;;;;5056877;28;20198;-71
2021/12/19 05:27:45;;;;;;;0.10;0.10;;;;;;;;;;5056194;28;20355;-72
2021/12/19 05:30:13;;;;;;;0.00;0.00;;;;;;;;;;5056933;28;20557;-70
2021/12/19 05:32:41;;;;;;;0.00;0.00;;;;;;;;;;5056608;28;20297;-72
2021/12/19 05:35:12;;;;;;;0.00;0.00;;;;;;;;;;5056428;28;20210;-72
2021/12/19 05:45:55;;;;;;;0.00;0.00;;;;;;;;;;5055252;28;20494;-74
2021/12/19 05:48:23;;;;;;;0.00;0.00;;;;;;;;;;5055860;28;20226;-74
2021/12/19 05:50:51;;;;;;;0.10;0.10;;;;;;;;;;5055659;28;20210;-72
2021/12/19 05:53:19;;;;;;;0.00;0.00;;;;;;;;;;5054110;28;20211;-72
2021/12/19 05:55:46;;;;;;;0.00;0.00;;;;;;;;;;5055740;28;20228;-73
2021/12/19 05:58:14;;;;;;;0.00;0.00;;;;;;;;;;5044235;28;20215;-72
2021/12/19 06:00:42;;;;;;;0.00;0.00;;;;;;;;;;5040894;28;20211;-74
2021/12/19 06:03:10;;;;;;;0.00;0.00;;;;;;;;;;5042628;28;20573;-74
2021/12/19 06:05:37;;;;;;;0.00;0.00;;;;;;;;;;5043429;28;20203;-73
2021/12/19 06:08:06;;;;;;;0.00;0.00;;;;;;;;;;5041989;28;20212;-75
2021/12/19 06:10:34;;;;;;;0.00;0.00;;;;;;;;;;5040369;28;21321;-74
2021/12/19 06:13:01;;;;;;;0.00;0.00;;;;;;;;;;5040737;28;20277;-74
2021/12/19 06:15:28;;;;;;;0.00;0.00;;;;;;;;;;5041246;28;20228;-75
2021/12/19 06:17:56;;;;;;;0.00;0.00;;;;;;;;;;5039933;28;20208;-75
2021/12/19 06:20:25;;;;;;;0.00;0.00;;;;;;;;;;5039161;28;20265;-75
2021/12/19 06:22:52;;;;;;;0.00;0.00;;;;;;;;;;5040834;28;20524;-76
2021/12/19 06:25:21;;;;;;;0.00;0.00;;;;;;;;;;5041830;28;20203;-75
2021/12/19 06:27:48;;;;;;;0.00;0.00;;;;;;;;;;5041040;28;20214;-75
2021/12/19 06:30:16;;;;;;;0.00;0.00;;;;;;;;;;5040644;28;20211;-73
2021/12/19 06:32:44;;;;;;;0.00;0.00;;;;;;;;;;5038184;28;20223;-73
2021/12/19 06:35:18;;;;;;;0.00;0.00;;;;;;;;;;5040309;28;20665;-76
2021/12/19 06:37:46;;;;;;;0.00;0.00;;;;;;;;;;5036623;28;20203;-75
2021/12/19 06:40:15;;;;;;;0.00;0.00;;;;;;;;;;5035106;28;20195;-72
2021/12/19 06:42:44;;;;;;;0.00;0.00;;;;;;;;;;5033778;28;20214;-73
2021/12/19 06:45:11;;;;;;;0.00;0.00;;;;;;;;;;5034432;28;20251;-74
2021/12/19 06:47:39;;;;;;;0.00;0.00;;;;;;;;;;5041688;28;20664;-76
2021/12/19 06:50:07;;;;;;;0.00;0.00;;;;;;;;;;5039629;28;20217;-69
2021/12/19 06:52:35;;;;;;;0.00;0.00;;;;;;;;;;5035975;28;20227;-75
2021/12/19 06:55:02;;;;;;;0.00;0.00;;;;;;;;;;5034839;28;20195;-74
2021/12/19 06:57:29;;;;;;;0.00;0.00;;;;;;;;;;5032631;28;20589;-76
2021/12/19 06:59:58;;;;;;;0.00;0.00;;;;;;;;;;5034603;28;20584;-73
2021/12/19 07:02:26;;;;;;;0.00;0.00;;;;;;;;;;5035947;28;20212;-72
2021/12/19 07:04:53;;;;;;;0.00;0.00;;;;;;;;;;5034015;28;20196;-75
2021/12/19 07:07:21;;;;;;;0.00;0.00;;;;;;;;;;5033515;28;20295;-72
2021/12/19 07:09:49;;;;;;;0.00;0.00;;;;;;;;;;5033447;28;20199;-72
2021/12/19 07:12:17;;;;;;;0.00;0.00;;;;;;;;;;5034987;28;20201;-77
2021/12/19 07:14:45;;;;;;;0.00;0.00;;;;;;;;;;5035513;28;20206;-76
2021/12/19 07:17:14;;;;;;;0.00;0.00;;;;;;;;;;5031251;28;20238;-74
2021/12/19 07:19:41;;;;;;;0.00;0.00;;;;;;;;;;5033485;28;20200;-75
2021/12/19 07:22:08;;;;;;;0.03;0.03;;;;;;;;;;5033432;28;20199;-75
2021/12/19 07:24:36;;;;;;;0.00;0.00;;;;;;;;;;5036335;28;20196;-73
2021/12/19 07:27:03;;;;;;;0.00;0.00;;;;;;;;;;5036761;28;20211;-73
2021/12/19 07:29:31;;;;;;;0.00;0.00;;;;;;;;;;5035507;28;20192;-75
2021/12/19 07:31:59;;;;;;;0.83;0.83;;;;;;;;;;5034301;28;22529;-73
2021/12/19 07:34:31;;;;;;;0.27;0.27;;;;;;;;;;5035121;28;20207;-74
2021/12/19 07:37:00;;;;;;;0.00;0.00;;;;;;;;;;5038295;28;20231;-74
2021/12/19 07:39:39;;;;;;;0.00;0.00;;;;;;;;;;5036590;28;20548;-72
2021/12/19 07:42:08;;;;;;;0.00;0.00;;;;;;;;;;5032893;28;20215;-69
2021/12/19 07:44:35;;;;;;;0.00;0.00;;;;;;;;;;5035331;28;20222;-74
2021/12/19 07:47:03;;;;;;;0.00;0.00;;;;;;;;;;5034781;28;20243;-73
2021/12/19 07:49:32;;;;;;;0.00;0.00;;;;;;;;;;5031116;28;20203;-75
2021/12/19 07:52:00;;;;;;;0.00;0.00;;;;;;;;;;5034902;28;20678;-72
2021/12/19 07:54:27;;;;;;;0.00;0.00;;;;;;;;;;5033456;28;20524;-73
2021/12/19 07:56:55;;;;;;;0.00;0.00;;;;;;;;;;5034014;28;20243;-72
2021/12/19 07:59:22;;;;;;;0.00;0.00;;;;;;;;;;5034291;28;20219;-74
2021/12/19 08:01:50;;;;;;;0.00;0.00;;;;;;;;;;5033573;28;20196;-74
2021/12/19 08:04:17;;;;;;;0.00;0.00;;;;;;;;;;5035052;28;20290;-72
2021/12/19 08:06:46;;;;;;;0.00;0.00;;;;;;;;;;5036373;28;20211;-73
2021/12/19 08:09:23;;;;;;;0.00;0.00;;;;;;;;;;5034387;28;20639;-76
2021/12/19 08:11:51;;;;;;;0.00;0.00;;;;;;;;;;5040256;28;20196;-76
2021/12/19 08:14:18;;;;;;;0.00;0.00;;;;;;;;;;5040288;28;20309;-76
2021/12/19 08:16:47;;;;;;;0.00;0.00;;;;;;;;;;5040125;28;20231;-76
2021/12/19 08:19:14;;;;;;;0.00;0.00;;;;;;;;;;5039282;28;20216;-74
2021/12/19 08:21:42;;;;;;;0.00;0.00;;;;;;;;;;5040511;28;20291;-76
2021/12/19 08:24:12;;;;;;;0.00;0.00;;;;;;;;;;5040016;28;20215;-75
2021/12/19 08:26:41;;;;;;;0.00;0.00;;;;;;;;;;5039636;28;20199;-75
2021/12/19 08:29:08;;;;;;;0.00;0.00;;;;;;;;;;5039498;28;20208;-74
2021/12/19 08:31:36;;;;;;;0.00;0.00;;;;;;;;;;5036721;28;20841;-74
2021/12/19 08:34:03;;;;;;;0.00;0.00;;;;;;;;;;5032836;28;20435;-73
2021/12/19 08:36:31;;;;;;;0.00;0.00;;;;;;;;;;5029615;28;20568;-74
2021/12/19 08:38:59;;;;;;;0.00;0.00;;;;;;;;;;5030636;28;20214;-72
2021/12/19 08:41:28;;;;;;;0.00;0.00;;;;;;;;;;5033265;28;20204;-76
2021/12/19 08:43:55;;;;;;;0.00;0.00;;;;;;;;;;5033215;28;20207;-78
2021/12/19 08:46:22;;;;;;;0.00;0.00;;;;;;;;;;5037320;28;20766;-73
2021/12/19 08:48:50;;;;;;;0.00;0.00;;;;;;;;;;5035895;28;20212;-75
2021/12/19 08:51:17;;;;;;;0.00;0.00;;;;;;;;;;5037129;28;20698;-77
2021/12/19 08:53:45;;;;;;;0.00;0.00;;;;;;;;;;5037137;28;20192;-77
2021/12/19 08:56:12;;;;;;;0.00;0.00;;;;;;;;;;5035900;28;20215;-77
2021/12/19 08:58:41;;;;;;;0.00;0.00;;;;;;;;;;5037051;28;20211;-77
2021/12/19 09:01:08;;;;;;;0.00;0.00;;;;;;;;;;5036400;28;20207;-76
2021/12/19 09:03:35;;;;;;;0.00;0.00;;;;;;;;;;5030852;28;20204;-75
2021/12/19 09:06:04;;;;;;;0.00;0.00;;;;;;;;;;5030831;28;20205;-73
2021/12/19 09:08:32;;;;;;;0.37;0.03;;;;;;;;;;5031176;28;20211;-74
2021/12/19 09:11:00;;;;;;;0.10;0.10;;;;;;;;;;5030418;28;21390;-74
2021/12/19 09:13:28;;;;;;;0.00;0.00;;;;;;;;;;5029052;28;20199;-72
2021/12/19 09:15:56;;;;;;;0.00;0.00;;;;;;;;;;5028478;28;20946;-72
2021/12/19 09:18:24;;;;;;;0.00;0.00;;;;;;;;;;5029155;28;20242;-71
2021/12/19 09:20:51;;;;;;;0.00;0.00;;;;;;;;;;5027181;28;20198;-73
2021/12/19 09:23:19;;;;;;;0.00;0.00;;;;;;;;;;5030409;28;21155;-70
2021/12/19 09:25:46;;;;;;;0.57;0.57;;;;;;;;;;5036888;28;20219;-72
2021/12/19 09:28:14;;;;;;;0.00;0.00;;;;;;;;;;5037645;28;20203;-74
2021/12/19 09:30:44;;;;;;;0.00;0.00;;;;;;;;;;5033139;28;20200;-71
2021/12/19 09:33:13;;;;;;;0.00;0.00;;;;;;;;;;5041229;28;20199;-79
2021/12/19 09:35:41;;;;;;;0.00;0.00;;;;;;;;;;5041494;28;20983;-72
2021/12/19 09:38:08;;;;;;;0.00;0.00;;;;;;;;;;5039921;28;20329;-79
2021/12/19 09:40:38;;;;;;;0.00;0.00;;;;;;;;;;5041159;28;20200;-75
2021/12/19 09:43:09;;;;;;;0.00;0.00;;;;;;;;;;5035604;28;20200;-73
2021/12/19 09:45:38;;;;;;;0.00;0.00;;;;;;;;;;5034043;28;21189;-73
2021/12/19 09:48:05;;;;;;;0.00;0.00;;;;;;;;;;5034422;28;20215;-76
2021/12/19 09:50:34;;;;;;;0.33;0.20;;;;;;;;;;5034044;28;20203;-73
2021/12/19 09:53:01;;;;;;;0.20;0.10;;;;;;;;;;5033998;28;20216;-75
2021/12/19 09:55:29;;;;;;;3.00;0.33;;;;;;;;;;5035648;28;20199;-76
2021/12/19 09:57:57;;;;;;;0.07;0.07;;;;;;;;;;5033980;28;20600;-74
2021/12/19 10:00:24;;;;;;;2.33;2.03;;;;;;;;;;5034624;28;20199;-74
2021/12/19 10:02:52;;;;;;;0.00;0.00;;;;;;;;;;5040598;28;21076;-75
2021/12/19 10:05:21;;;;;;;0.00;0.00;;;;;;;;;;5042314;28;20203;-75
2021/12/19 10:07:51;;;;;;;0.20;0.20;;;;;;;;;;5041349;28;20207;-75
2021/12/19 10:10:26;;;;;;;0.00;0.00;;;;;;;;;;5038704;28;20231;-75
2021/12/19 10:12:57;;;;;;;0.00;0.00;;;;;;;;;;5038556;28;20199;-71
2021/12/19 10:15:29;;;;;;;0.00;0.00;;;;;;;;;;5034561;28;20214;-73
2021/12/19 10:18:04;;;;;;;0.00;0.00;;;;;;;;;;5038068;28;20240;-71
2021/12/19 10:20:41;;;;;;;0.00;0.00;;;;;;;;;;5032785;28;20222;-75
2021/12/19 10:23:15;;;;;;;0.00;0.00;;;;;;;;;;5033791;28;20204;-76
2021/12/19 10:25:43;;;;;;;0.00;0.00;;;;;;;;;;5035598;28;20205;-71
2021/12/19 10:28:11;;;;;;;0.00;0.00;;;;;;;;;;5032192;28;20213;-73
2021/12/19 10:30:39;;;;;;;0.00;0.00;;;;;;;;;;5033216;28;20223;-76
2021/12/19 10:33:07;;;;;;;0.00;0.00;;;;;;;;;;5031073;28;20294;-75
2021/12/19 10:35:39;;;;;;;0.00;0.00;;;;;;;;;;5030941;28;20341;-73
2021/12/19 10:38:07;;;;;;;0.00;0.00;;;;;;;;;;5035734;28;20212;-71
2021/12/19 10:40:36;;;;;;;0.00;0.00;;;;;;;;;;5037758;28;20264;-70
2021/12/19 10:43:04;;;;;;;0.00;0.00;;;;;;;;;;5030229;28;22066;-76
2021/12/19 10:45:33;;;;;;;0.00;0.00;;;;;;;;;;5032490;28;20763;-72
2021/12/19 10:48:11;;;;;;;0.00;0.00;;;;;;;;;;5032054;28;21055;-72
2021/12/19 10:50:46;;;;;;;0.00;0.00;;;;;;;;;;5037317;28;20207;-75
2021/12/19 10:53:16;;;;;;;0.00;0.00;;;;;;;;;;5033665;28;20203;-71
2021/12/19 10:55:46;;;;;;;0.00;0.00;;;;;;;;;;5033546;28;20283;-73
2021/12/19 10:58:30;;;;;;;0.00;0.00;;;;;;;;;;5032562;28;20314;-71
2021/12/19 11:01:04;;;;;;;0.00;0.00;;;;;;;;;;5028744;28;20322;-70
2021/12/19 11:03:36;;;;;;;0.10;0.10;;;;;;;;;;5032940;28;20344;-76
2021/12/19 11:06:14;;;;;;;0.00;0.00;;;;;;;;;;5039519;28;20195;-71
2021/12/19 11:08:42;;;;;;;0.00;0.00;;;;;;;;;;5036460;28;20216;-78
2021/12/19 11:11:11;;;;;;;0.00;0.00;;;;;;;;;;5035639;28;20571;-74
2021/12/19 11:13:39;;;;;;;0.00;0.00;;;;;;;;;;5035592;28;20215;-75
2021/12/19 11:16:07;;;;;;;0.00;0.00;;;;;;;;;;5037275;28;20211;-71
2021/12/19 11:18:34;;;;;;;0.00;0.00;;;;;;;;;;5033896;28;20346;-71
2021/12/19 11:21:02;;;;;;;0.00;0.00;;;;;;;;;;5031204;28;20223;-75
2021/12/19 11:23:29;;;;;;;0.00;0.00;;;;;;;;;;5033230;28;20222;-74
2021/12/19 11:25:57;;;;;;;0.00;0.00;;;;;;;;;;5034467;28;20207;-77
2021/12/19 11:28:26;;;;;;;0.00;0.00;;;;;;;;;;5031330;28;20211;-77
2021/12/19 11:30:55;;;;;;;0.00;0.00;;;;;;;;;;5034420;28;20207;-77
2021/12/19 11:33:31;;;;;;;0.00;0.00;;;;;;;;;;5033496;28;20705;-76
2021/12/19 11:35:59;;;;;;;0.00;0.00;;;;;;;;;;5031585;28;20214;-76
2021/12/19 11:38:26;;;;;;;0.00;0.00;;;;;;;;;;5032622;28;20218;-77
2021/12/19 11:40:54;;;;;;;0.00;0.00;;;;;;;;;;5031855;28;20297;-75
2021/12/19 11:43:21;;;;;;;0.00;0.00;;;;;;;;;;5034694;28;20195;-76
2021/12/19 11:45:59;;;;;;;0.00;0.00;;;;;;;;;;5030890;28;20226;-71
2021/12/19 11:48:30;;;;;;;0.00;0.00;;;;;;;;;;5035900;28;20200;-73
2021/12/19 11:50:58;;;;;;;0.00;0.00;;;;;;;;;;5033885;28;20203;-78
2021/12/19 11:53:27;;;;;;;0.00;0.00;;;;;;;;;;5035355;28;20206;-73
2021/12/19 11:55:55;;;;;;;0.00;0.00;;;;;;;;;;5031636;28;20789;-75
2021/12/19 11:58:33;;;;;;;0.20;0.00;;;;;;;;;;5030429;28;20230;-74
2021/12/19 12:01:07;;;;;;;0.00;0.00;;;;;;;;;;5032071;28;20664;-74
2021/12/19 12:03:45;;;;;;;0.00;0.00;;;;;;;;;;5039740;28;20195;-75
2021/12/19 12:06:24;;;;;;;0.93;0.93;;;;;;;;;;5037960;28;20592;-76
2021/12/19 12:09:09;;;;;;;0.20;0.00;;;;;;;;;;5039920;28;20207;-76
2021/12/19 12:11:37;;;;;;;0.10;0.10;;;;;;;;;;5037487;28;20388;-73
2021/12/19 12:14:21;;;;;;;0.00;0.00;;;;;;;;;;5036801;28;20952;-77
2021/12/19 12:16:58;;;;;;;0.20;0.20;;;;;;;;;;5034965;28;21213;-77
2021/12/19 12:19:40;;;;;;;0.00;0.00;;;;;;;;;;5031139;28;20241;-72
2021/12/19 12:22:35;;;;;;;0.00;0.00;;;;;;;;;;5029994;28;20297;-76
2021/12/19 12:25:07;;;;;;;0.00;0.00;;;;;;;;;;5032577;28;20208;-78
2021/12/19 12:27:36;;;;;;;0.10;0.10;;;;;;;;;;5029524;28;20656;-73
2021/12/19 12:30:04;;;;;;;0.00;0.00;;;;;;;;;;5034653;28;20250;-77
2021/12/19 12:32:33;;;;;;;0.00;0.00;;;;;;;;;;5038062;28;20583;-76
2021/12/19 12:35:01;;;;;;;0.63;0.20;;;;;;;;;;5037423;28;20199;-78
2021/12/19 12:37:28;;;;;;;0.00;0.00;;;;;;;;;;5038723;28;20207;-77
2021/12/19 12:40:17;;;;;;;0.00;0.00;;;;;;;;;;5036462;28;20282;-77
2021/12/19 12:43:11;;;;;;;0.00;0.00;;;;;;;;;;5038041;28;20212;-75
2021/12/19 12:45:56;;;;;;;0.00;0.00;;;;;;;;;;5020381;28;20223;-77
2021/12/19 12:48:36;;;;;;;0.00;0.00;;;;;;;;;;5038673;28;20218;-77
2021/12/19 12:51:05;;;;;;;0.00;0.00;;;;;;;;;;5038221;28;20203;-78
2021/12/19 12:53:34;;;;;;;0.93;0.00;;;;;;;;;;5033559;28;20199;-76
2021/12/19 12:56:03;;;;;;;0.00;0.00;;;;;;;;;;5034682;28;20237;-75
2021/12/19 12:58:35;;;;;;;0.00;0.00;;;;;;;;;;5032695;28;20230;-78
2021/12/19 13:01:22;;;;;;;0.00;0.00;;;;;;;;;;5034499;28;20639;-75
2021/12/19 13:03:59;;;;;;;0.00;0.00;;;;;;;;;;5037040;28;20841;-75
2021/12/19 13:06:36;;;;;;;0.00;0.00;;;;;;;;;;5026782;28;20337;-72
2021/12/19 13:09:18;;;;;;;0.10;0.10;;;;;;;;;;5034386;28;20211;-76
2021/12/19 13:11:46;;;;;;;0.00;0.00;;;;;;;;;;5039372;28;20187;-73
2021/12/19 13:14:14;;;;;;;0.00;0.00;;;;;;;;;;5036337;28;20293;-72
2021/12/19 13:16:43;;;;;;;0.00;0.00;;;;;;;;;;5039165;28;20204;-77
2021/12/19 13:19:11;;;;;;;0.00;0.00;;;;;;;;;;5031878;28;20231;-77
2021/12/19 13:21:54;;;;;;;0.00;0.00;;;;;;;;;;5037854;28;20191;-75
2021/12/19 13:24:24;;;;;;;0.00;0.00;;;;;;;;;;5033955;28;20211;-76
2021/12/19 13:27:03;;;;;;;0.00;0.00;;;;;;;;;;5034366;28;20240;-75
2021/12/19 13:29:30;;;;;;;0.00;0.00;;;;;;;;;;5029361;28;20210;-78
2021/12/19 13:32:12;;;;;;;0.00;0.00;;;;;;;;;;5033870;28;20246;-75
2021/12/19 13:34:41;;;;;;;0.00;0.00;;;;;;;;;;5034862;28;20207;-77
2021/12/19 13:37:09;;;;;;;0.13;0.13;;;;;;;;;;5033234;28;20214;-74
2021/12/19 13:39:36;;;;;;;0.00;0.00;;;;;;;;;;5037971;28;20234;-76
2021/12/19 13:42:08;;;;;;;0.00;0.00;;;;;;;;;;5038791;28;20749;-76
2021/12/19 13:44:35;;;;;;;0.00;0.00;;;;;;;;;;5034350;28;20368;-73
2021/12/19 13:47:10;;;;;;;0.00;0.00;;;;;;;;;;5032080;28;20223;-74
2021/12/19 13:49:39;;;;;;;0.00;0.00;;;;;;;;;;5033243;28;20216;-73
2021/12/19 13:52:08;;;;;;;0.30;0.30;;;;;;;;;;5036073;28;20199;-73
2021/12/19 13:54:38;;;;;;;0.00;0.00;;;;;;;;;;5033700;28;20207;-75
2021/12/19 13:57:18;;;;;;;0.00;0.00;;;;;;;;;;5033490;28;20546;-74
2021/12/19 13:59:45;;;;;;;0.00;0.00;;;;;;;;;;5032544;28;20227;-74
2021/12/19 14:02:12;;;;;;;0.00;0.00;;;;;;;;;;5030549;28;20187;-74
2021/12/19 14:04:41;;;;;;;0.00;0.00;;;;;;;;;;5031085;28;20245;-73
2021/12/19 14:07:15;;;;;;;0.00;0.00;;;;;;;;;;5032217;28;20867;-73
2021/12/19 14:09:44;;;;;;;0.00;0.00;;;;;;;;;;5032347;28;20230;-74
2021/12/19 14:12:12;;;;;;;0.00;0.00;;;;;;;;;;5030349;28;20204;-76
2021/12/19 14:14:39;;;;;;;0.00;0.00;;;;;;;;;;5030229;28;20197;-73
2021/12/19 14:17:08;;;;;;;0.00;0.00;;;;;;;;;;5030850;28;20736;-73
2021/12/19 14:19:36;;;;;;;0.03;0.03;;;;;;;;;;5030069;28;20226;-74
2021/12/19 14:22:16;;;;;;;0.00;0.00;;;;;;;;;;5034076;28;20204;-77
2021/12/19 14:24:44;;;;;;;0.13;0.13;;;;;;;;;;5036920;28;20261;-73
2021/12/19 14:27:18;;;;;;;0.00;0.00;;;;;;;;;;5035737;28;20214;-76
2021/12/19 14:29:47;;;;;;;0.00;0.00;;;;;;;;;;5038951;28;20714;-74
2021/12/19 14:32:16;;;;;;;0.00;0.00;;;;;;;;;;5041433;28;20261;-74
2021/12/19 14:34:48;;;;;;;0.20;0.20;;;;;;;;;;5035548;28;20695;-75
2021/12/19 14:37:18;;;;;;;0.10;0.10;;;;;;;;;;5034073;28;20195;-75
2021/12/19 14:39:58;;;;;;;0.00;0.00;;;;;;;;;;5034987;28;20223;-73
2021/12/19 14:42:30;;;;;;;0.00;0.00;;;;;;;;;;5035641;28;20200;-70
2021/12/19 14:44:57;;;;;;;0.00;0.00;;;;;;;;;;5035446;28;20611;-74
2021/12/19 14:47:39;;;;;;;0.00;0.00;;;;;;;;;;5034476;28;20235;-72
2021/12/19 14:50:11;;;;;;;0.00;0.00;;;;;;;;;;5032905;28;20889;-74
2021/12/19 14:52:40;;;;;;;0.00;0.00;;;;;;;;;;5035534;28;20228;-72
2021/12/19 14:55:11;;;;;;;0.00;0.00;;;;;;;;;;5029554;28;20208;-71
2021/12/19 14:57:38;;;;;;;0.10;0.10;;;;;;;;;;5033378;28;20204;-73
2021/12/19 15:00:07;;;;;;;0.00;0.00;;;;;;;;;;5040495;28;20232;-74
2021/12/19 15:02:34;;;;;;;0.00;0.00;;;;;;;;;;5036372;28;20590;-72
2021/12/19 15:05:02;;;;;;;0.00;0.00;;;;;;;;;;5033960;28;20207;-74
2021/12/19 15:07:30;;;;;;;0.00;0.00;;;;;;;;;;5034854;28;20690;-78
2021/12/19 15:09:59;;;;;;;0.00;0.00;;;;;;;;;;5032730;28;20210;-77
2021/12/19 15:12:27;;;;;;;0.10;0.10;;;;;;;;;;5030018;28;20195;-77
2021/12/19 15:14:54;;;;;;;0.30;0.23;;;;;;;;;;5028779;28;20297;-77
2021/12/19 15:17:22;;;;;;;0.30;0.30;;;;;;;;;;5033710;28;20226;-75
2021/12/19 15:19:49;;;;;;;0.17;0.17;;;;;;;;;;5033579;28;20234;-76
2021/12/19 15:22:16;;;;;;;0.10;0.10;;;;;;;;;;5031428;28;20619;-75
2021/12/19 15:24:44;;;;;;;0.00;0.00;;;;;;;;;;5029144;28;20191;-73
2021/12/19 15:27:13;;;;;;;0.00;0.00;;;;;;;;;;5034495;28;20203;-73
2021/12/19 15:29:41;;;;;;;0.00;0.00;;;;;;;;;;5032388;28;20562;-73
2021/12/19 15:32:10;;;;;;;2.20;2.00;;;;;;;;;;5034127;28;20200;-70
2021/12/19 15:34:37;;;;;;;0.00;0.00;;;;;;;;;;5026892;28;20208;-72
2021/12/19 15:37:05;;;;;;;0.00;0.00;;;;;;;;;;5031887;28;20964;-74
2021/12/19 15:39:32;;;;;;;0.73;0.53;;;;;;;;;;5029143;28;20722;-72
2021/12/19 15:41:59;;;;;;;0.00;0.00;;;;;;;;;;5029826;28;20277;-75
2021/12/19 15:44:28;;;;;;;0.00;0.00;;;;;;;;;;5034876;28;20548;-71
2021/12/19 15:46:55;;;;;;;0.00;0.00;;;;;;;;;;5035240;28;20687;-70
2021/12/19 15:49:24;;;;;;;0.00;0.00;;;;;;;;;;5029805;28;20668;-73
2021/12/19 15:51:52;;;;;;;0.00;0.00;;;;;;;;;;5035481;28;20791;-74